sensor_id;sensor_type;location;lat;lon;timestamp;temperature;humidity
54192;DHT22;40101;53.002;6.488;2022-09-09T00:02:03;14.20;99.90
54192;DHT22;40101;53.002;6.488;2022-09-09T00:07:13;14.10;99.90
54192;DHT22;40101;53.002;6.488;2022-09-09T00:12:14;14.10;99.90
54192;DHT22;40101;53.002;6.488;2022-09-09T00:14:56;14.10;99.90
54192;DHT22;40101;53.002;6.488;2022-09-09T00:20:32;14.00;99.90
54192;DHT22;40101;53.002;6.488;2022-09-09T00:23:28;14.00;99.90
54192;DHT22;40101;53.002;6.488;2022-09-09T00:28:52;13.90;99.90
54192;DHT22;40101;53.002;6.488;2022-09-09T00:31:26;13.90;99.90
54192;DHT22;40101;53.002;6.488;2022-09-09T00:33:53;13.80;99.90
54192;DHT22;40101;53.002;6.488;2022-09-09T00:36:22;13.90;99.90
54192;DHT22;40101;53.002;6.488;2022-09-09T00:38:53;13.80;99.90
54192;DHT22;40101;53.002;6.488;2022-09-09T00:44:46;13.80;99.90
54192;DHT22;40101;53.002;6.488;2022-09-09T00:50:00;13.80;99.90
54192;DHT22;40101;53.002;6.488;2022-09-09T00:52:50;13.80;99.90
54192;DHT22;40101;53.002;6.488;2022-09-09T00:55:39;13.70;99.90
54192;DHT22;40101;53.002;6.488;2022-09-09T00:58:08;13.70;99.90
54192;DHT22;40101;53.002;6.488;2022-09-09T01:00:47;13.80;99.90
54192;DHT22;40101;53.002;6.488;2022-09-09T01:03:35;13.70;99.90
54192;DHT22;40101;53.002;6.488;2022-09-09T01:09:02;13.70;99.90
54192;DHT22;40101;53.002;6.488;2022-09-09T01:11:59;13.60;99.90
54192;DHT22;40101;53.002;6.488;2022-09-09T01:16:54;13.60;99.90
54192;DHT22;40101;53.002;6.488;2022-09-09T01:19:51;13.60;99.90
54192;DHT22;40101;53.002;6.488;2022-09-09T01:22:44;13.60;99.90
54192;DHT22;40101;53.002;6.488;2022-09-09T01:28:10;13.60;99.90
54192;DHT22;40101;53.002;6.488;2022-09-09T01:30:39;13.60;99.90
54192;DHT22;40101;53.002;6.488;2022-09-09T01:33:14;13.60;99.90
54192;DHT22;40101;53.002;6.488;2022-09-09T01:35:54;13.60;99.90
54192;DHT22;40101;53.002;6.488;2022-09-09T01:38:21;13.60;99.90
54192;DHT22;40101;53.002;6.488;2022-09-09T01:40:47;13.60;99.90
54192;DHT22;40101;53.002;6.488;2022-09-09T01:43:15;13.60;99.90
54192;DHT22;40101;53.002;6.488;2022-09-09T01:45:42;13.60;99.90
54192;DHT22;40101;53.002;6.488;2022-09-09T01:48:09;13.60;99.90
54192;DHT22;40101;53.002;6.488;2022-09-09T01:50:36;13.60;99.90
54192;DHT22;40101;53.002;6.488;2022-09-09T01:53:02;13.70;99.90
54192;DHT22;40101;53.002;6.488;2022-09-09T01:55:40;13.70;99.90
54192;DHT22;40101;53.002;6.488;2022-09-09T01:58:28;13.80;99.90
54192;DHT22;40101;53.002;6.488;2022-09-09T02:01:22;13.70;99.90
54192;DHT22;40101;53.002;6.488;2022-09-09T02:03:56;13.80;99.90
54192;DHT22;40101;53.002;6.488;2022-09-09T02:06:35;13.80;99.90
54192;DHT22;40101;53.002;6.488;2022-09-09T02:09:05;13.80;99.90
54192;DHT22;40101;53.002;6.488;2022-09-09T02:11:31;13.80;99.90
54192;DHT22;40101;53.002;6.488;2022-09-09T02:14:05;13.80;99.90
54192;DHT22;40101;53.002;6.488;2022-09-09T02:16:44;13.80;99.90
54192;DHT22;40101;53.002;6.488;2022-09-09T02:21:42;13.90;99.90
54192;DHT22;40101;53.002;6.488;2022-09-09T02:24:10;13.90;99.90
54192;DHT22;40101;53.002;6.488;2022-09-09T02:26:39;13.90;99.90
54192;DHT22;40101;53.002;6.488;2022-09-09T02:29:12;14.00;99.90
54192;DHT22;40101;53.002;6.488;2022-09-09T02:31:39;14.10;99.90
54192;DHT22;40101;53.002;6.488;2022-09-09T02:34:09;14.00;99.90
54192;DHT22;40101;53.002;6.488;2022-09-09T02:36:37;14.00;99.90
54192;DHT22;40101;53.002;6.488;2022-09-09T02:39:07;14.00;99.90
54192;DHT22;40101;53.002;6.488;2022-09-09T02:41:36;13.90;99.90
54192;DHT22;40101;53.002;6.488;2022-09-09T02:44:05;14.10;99.90
54192;DHT22;40101;53.002;6.488;2022-09-09T02:47:44;14.10;99.90
54192;DHT22;40101;53.002;6.488;2022-09-09T02:50:00;14.10;99.90
54192;DHT22;40101;53.002;6.488;2022-09-09T02:58:04;14.20;99.90
54192;DHT22;40101;53.002;6.488;2022-09-09T03:00:31;14.20;99.90
54192;DHT22;40101;53.002;6.488;2022-09-09T03:02:57;14.20;99.90
54192;DHT22;40101;53.002;6.488;2022-09-09T03:05:23;14.20;99.90
54192;DHT22;40101;53.002;6.488;2022-09-09T03:07:49;14.20;99.90
54192;DHT22;40101;53.002;6.488;2022-09-09T03:10:16;14.30;99.90
54192;DHT22;40101;53.002;6.488;2022-09-09T03:12:42;14.30;99.90
54192;DHT22;40101;53.002;6.488;2022-09-09T03:15:08;14.30;99.90
54192;DHT22;40101;53.002;6.488;2022-09-09T03:17:35;14.30;99.90
54192;DHT22;40101;53.002;6.488;2022-09-09T03:20:02;14.40;99.90
54192;DHT22;40101;53.002;6.488;2022-09-09T03:22:28;14.30;99.90
54192;DHT22;40101;53.002;6.488;2022-09-09T03:24:54;14.40;99.90
54192;DHT22;40101;53.002;6.488;2022-09-09T03:27:19;14.30;99.90
54192;DHT22;40101;53.002;6.488;2022-09-09T03:29:46;14.50;99.90
54192;DHT22;40101;53.002;6.488;2022-09-09T03:32:12;14.30;99.90
54192;DHT22;40101;53.002;6.488;2022-09-09T03:34:38;14.30;99.90
54192;DHT22;40101;53.002;6.488;2022-09-09T03:37:06;14.30;99.90
54192;DHT22;40101;53.002;6.488;2022-09-09T03:39:31;14.30;99.90
54192;DHT22;40101;53.002;6.488;2022-09-09T03:41:57;14.30;99.90
54192;DHT22;40101;53.002;6.488;2022-09-09T03:44:23;14.30;99.90
54192;DHT22;40101;53.002;6.488;2022-09-09T03:46:48;14.30;99.90
54192;DHT22;40101;53.002;6.488;2022-09-09T03:49:14;14.30;99.90
54192;DHT22;40101;53.002;6.488;2022-09-09T03:51:41;14.40;99.90
54192;DHT22;40101;53.002;6.488;2022-09-09T03:54:07;14.10;99.90
54192;DHT22;40101;53.002;6.488;2022-09-09T03:56:35;14.30;99.90
54192;DHT22;40101;53.002;6.488;2022-09-09T03:59:01;14.30;99.90
54192;DHT22;40101;53.002;6.488;2022-09-09T04:01:28;14.30;99.90
54192;DHT22;40101;53.002;6.488;2022-09-09T04:03:54;14.40;99.90
54192;DHT22;40101;53.002;6.488;2022-09-09T04:06:23;14.30;99.90
54192;DHT22;40101;53.002;6.488;2022-09-09T04:08:49;14.30;99.90
54192;DHT22;40101;53.002;6.488;2022-09-09T04:11:16;14.20;99.90
54192;DHT22;40101;53.002;6.488;2022-09-09T04:13:41;14.20;99.90
54192;DHT22;40101;53.002;6.488;2022-09-09T04:16:09;14.10;99.90
54192;DHT22;40101;53.002;6.488;2022-09-09T04:18:35;14.30;99.90
54192;DHT22;40101;53.002;6.488;2022-09-09T04:21:02;14.20;99.90
54192;DHT22;40101;53.002;6.488;2022-09-09T04:23:29;14.20;99.90
54192;DHT22;40101;53.002;6.488;2022-09-09T04:25:56;14.20;99.90
54192;DHT22;40101;53.002;6.488;2022-09-09T04:28:24;14.20;99.90
54192;DHT22;40101;53.002;6.488;2022-09-09T04:30:50;14.20;99.90
54192;DHT22;40101;53.002;6.488;2022-09-09T04:33:17;14.20;99.90
54192;DHT22;40101;53.002;6.488;2022-09-09T04:35:48;14.20;99.90
54192;DHT22;40101;53.002;6.488;2022-09-09T04:38:16;14.40;99.90
54192;DHT22;40101;53.002;6.488;2022-09-09T04:40:46;14.20;99.90
54192;DHT22;40101;53.002;6.488;2022-09-09T04:43:12;14.20;99.90
54192;DHT22;40101;53.002;6.488;2022-09-09T04:45:40;14.30;99.90
54192;DHT22;40101;53.002;6.488;2022-09-09T04:48:06;14.20;99.90
54192;DHT22;40101;53.002;6.488;2022-09-09T04:50:32;14.20;99.90
54192;DHT22;40101;53.002;6.488;2022-09-09T04:53:02;14.20;99.90
54192;DHT22;40101;53.002;6.488;2022-09-09T04:55:29;14.20;99.90
54192;DHT22;40101;53.002;6.488;2022-09-09T04:57:55;14.20;99.90
54192;DHT22;40101;53.002;6.488;2022-09-09T05:00:22;14.20;99.90
54192;DHT22;40101;53.002;6.488;2022-09-09T05:02:47;14.20;99.90
54192;DHT22;40101;53.002;6.488;2022-09-09T05:05:13;14.20;99.90
54192;DHT22;40101;53.002;6.488;2022-09-09T05:07:39;14.10;99.90
54192;DHT22;40101;53.002;6.488;2022-09-09T05:10:05;14.20;99.90
54192;DHT22;40101;53.002;6.488;2022-09-09T05:12:31;14.10;99.90
54192;DHT22;40101;53.002;6.488;2022-09-09T05:14:57;14.10;99.90
54192;DHT22;40101;53.002;6.488;2022-09-09T05:17:23;14.10;99.90
54192;DHT22;40101;53.002;6.488;2022-09-09T05:19:49;14.10;99.90
54192;DHT22;40101;53.002;6.488;2022-09-09T05:22:19;14.10;99.90
54192;DHT22;40101;53.002;6.488;2022-09-09T05:24:45;14.10;99.90
54192;DHT22;40101;53.002;6.488;2022-09-09T05:27:11;14.10;99.90
54192;DHT22;40101;53.002;6.488;2022-09-09T05:29:38;14.10;99.90
54192;DHT22;40101;53.002;6.488;2022-09-09T05:32:04;14.10;99.90
54192;DHT22;40101;53.002;6.488;2022-09-09T05:34:29;14.10;99.90
54192;DHT22;40101;53.002;6.488;2022-09-09T05:36:55;14.10;99.90
54192;DHT22;40101;53.002;6.488;2022-09-09T05:39:21;14.10;99.90
54192;DHT22;40101;53.002;6.488;2022-09-09T05:41:46;14.10;99.90
54192;DHT22;40101;53.002;6.488;2022-09-09T05:44:12;14.10;99.90
54192;DHT22;40101;53.002;6.488;2022-09-09T05:46:39;14.10;99.90
54192;DHT22;40101;53.002;6.488;2022-09-09T05:49:05;14.10;99.90
54192;DHT22;40101;53.002;6.488;2022-09-09T05:51:31;14.10;99.90
54192;DHT22;40101;53.002;6.488;2022-09-09T05:53:57;14.10;99.90
54192;DHT22;40101;53.002;6.488;2022-09-09T05:56:27;14.10;99.90
54192;DHT22;40101;53.002;6.488;2022-09-09T05:58:54;14.20;99.90
54192;DHT22;40101;53.002;6.488;2022-09-09T06:01:29;14.20;99.90
54192;DHT22;40101;53.002;6.488;2022-09-09T06:03:55;14.20;99.90
54192;DHT22;40101;53.002;6.488;2022-09-09T06:06:23;14.30;99.90
54192;DHT22;40101;53.002;6.488;2022-09-09T06:08:54;14.20;99.90
54192;DHT22;40101;53.002;6.488;2022-09-09T06:11:25;14.20;99.90
54192;DHT22;40101;53.002;6.488;2022-09-09T06:13:52;14.30;99.90
54192;DHT22;40101;53.002;6.488;2022-09-09T06:16:21;14.20;99.90
54192;DHT22;40101;53.002;6.488;2022-09-09T06:18:49;14.30;99.90
54192;DHT22;40101;53.002;6.488;2022-09-09T06:21:18;14.30;99.90
54192;DHT22;40101;53.002;6.488;2022-09-09T06:23:45;14.30;99.90
54192;DHT22;40101;53.002;6.488;2022-09-09T06:26:16;14.30;99.90
54192;DHT22;40101;53.002;6.488;2022-09-09T06:28:46;14.40;99.90
54192;DHT22;40101;53.002;6.488;2022-09-09T06:31:14;14.40;99.90
54192;DHT22;40101;53.002;6.488;2022-09-09T06:33:43;14.40;99.90
54192;DHT22;40101;53.002;6.488;2022-09-09T06:36:15;14.50;99.90
54192;DHT22;40101;53.002;6.488;2022-09-09T06:38:41;14.40;99.90
54192;DHT22;40101;53.002;6.488;2022-09-09T06:41:08;14.50;99.90
54192;DHT22;40101;53.002;6.488;2022-09-09T06:43:35;14.60;99.90
54192;DHT22;40101;53.002;6.488;2022-09-09T06:46:04;14.80;99.90
54192;DHT22;40101;53.002;6.488;2022-09-09T06:48:31;14.60;99.90
54192;DHT22;40101;53.002;6.488;2022-09-09T06:53:32;14.60;99.90
54192;DHT22;40101;53.002;6.488;2022-09-09T06:56:24;14.50;99.90
54192;DHT22;40101;53.002;6.488;2022-09-09T06:58:52;14.60;99.90
54192;DHT22;40101;53.002;6.488;2022-09-09T07:01:23;14.70;99.90
54192;DHT22;40101;53.002;6.488;2022-09-09T07:03:51;14.70;99.90
54192;DHT22;40101;53.002;6.488;2022-09-09T07:06:19;14.70;99.90
54192;DHT22;40101;53.002;6.488;2022-09-09T07:08:53;14.80;99.90
54192;DHT22;40101;53.002;6.488;2022-09-09T07:11:22;14.90;99.90
54192;DHT22;40101;53.002;6.488;2022-09-09T07:13:49;14.90;99.90
54192;DHT22;40101;53.002;6.488;2022-09-09T07:16:17;15.00;99.90
54192;DHT22;40101;53.002;6.488;2022-09-09T07:18:44;15.10;99.90
54192;DHT22;40101;53.002;6.488;2022-09-09T07:21:14;15.10;99.90
54192;DHT22;40101;53.002;6.488;2022-09-09T07:23:40;15.10;99.90
54192;DHT22;40101;53.002;6.488;2022-09-09T07:26:19;15.30;99.90
54192;DHT22;40101;53.002;6.488;2022-09-09T07:28:45;15.40;99.90
54192;DHT22;40101;53.002;6.488;2022-09-09T07:31:15;15.50;99.90
54192;DHT22;40101;53.002;6.488;2022-09-09T07:33:42;15.70;99.90
54192;DHT22;40101;53.002;6.488;2022-09-09T07:36:10;15.90;99.90
54192;DHT22;40101;53.002;6.488;2022-09-09T07:38:48;16.00;99.90
54192;DHT22;40101;53.002;6.488;2022-09-09T07:41:18;16.20;99.90
54192;DHT22;40101;53.002;6.488;2022-09-09T07:43:45;16.60;99.90
54192;DHT22;40101;53.002;6.488;2022-09-09T07:46:13;16.90;99.90
54192;DHT22;40101;53.002;6.488;2022-09-09T07:48:50;17.50;99.90
54192;DHT22;40101;53.002;6.488;2022-09-09T07:51:30;18.30;99.90
54192;DHT22;40101;53.002;6.488;2022-09-09T07:54:02;18.70;99.90
54192;DHT22;40101;53.002;6.488;2022-09-09T07:56:29;18.70;99.90
54192;DHT22;40101;53.002;6.488;2022-09-09T07:58:56;18.90;99.90
54192;DHT22;40101;53.002;6.488;2022-09-09T08:03:58;19.10;99.90
54192;DHT22;40101;53.002;6.488;2022-09-09T08:06:28;19.20;99.90
54192;DHT22;40101;53.002;6.488;2022-09-09T08:08:55;20.00;99.90
54192;DHT22;40101;53.002;6.488;2022-09-09T08:11:22;20.10;99.90
54192;DHT22;40101;53.002;6.488;2022-09-09T08:13:50;20.10;99.90
54192;DHT22;40101;53.002;6.488;2022-09-09T08:16:24;20.00;99.90
54192;DHT22;40101;53.002;6.488;2022-09-09T08:18:51;19.70;99.90
54192;DHT22;40101;53.002;6.488;2022-09-09T08:21:20;19.40;99.90
54192;DHT22;40101;53.002;6.488;2022-09-09T08:23:47;19.00;99.90
54192;DHT22;40101;53.002;6.488;2022-09-09T08:26:17;18.90;99.90
54192;DHT22;40101;53.002;6.488;2022-09-09T08:28:49;19.00;99.90
54192;DHT22;40101;53.002;6.488;2022-09-09T08:31:21;19.70;99.90
54192;DHT22;40101;53.002;6.488;2022-09-09T08:33:47;19.90;99.90
54192;DHT22;40101;53.002;6.488;2022-09-09T08:36:18;19.80;99.90
54192;DHT22;40101;53.002;6.488;2022-09-09T08:38:51;19.80;99.90
54192;DHT22;40101;53.002;6.488;2022-09-09T08:55:52;22.30;99.90
54192;DHT22;40101;53.002;6.488;2022-09-09T08:58:33;23.00;99.90
54192;DHT22;40101;53.002;6.488;2022-09-09T09:06:40;23.40;99.90
54192;DHT22;40101;53.002;6.488;2022-09-09T09:09:21;23.00;99.90
54192;DHT22;40101;53.002;6.488;2022-09-09T09:11:54;22.60;99.90
54192;DHT22;40101;53.002;6.488;2022-09-09T09:14:25;22.40;99.90
54192;DHT22;40101;53.002;6.488;2022-09-09T09:16:58;22.40;99.90
54192;DHT22;40101;53.002;6.488;2022-09-09T09:19:26;22.50;99.90
54192;DHT22;40101;53.002;6.488;2022-09-09T09:22:19;22.60;99.90
54192;DHT22;40101;53.002;6.488;2022-09-09T09:31:05;21.60;99.90
54192;DHT22;40101;53.002;6.488;2022-09-09T09:33:37;21.70;99.90
54192;DHT22;40101;53.002;6.488;2022-09-09T09:36:06;21.60;99.90
54192;DHT22;40101;53.002;6.488;2022-09-09T09:38:34;21.60;99.90
54192;DHT22;40101;53.002;6.488;2022-09-09T09:41:00;21.60;99.90
54192;DHT22;40101;53.002;6.488;2022-09-09T09:43:33;21.50;99.90
54192;DHT22;40101;53.002;6.488;2022-09-09T09:45:59;21.40;99.90
54192;DHT22;40101;53.002;6.488;2022-09-09T09:48:27;21.30;99.90
54192;DHT22;40101;53.002;6.488;2022-09-09T09:51:08;21.00;99.90
54192;DHT22;40101;53.002;6.488;2022-09-09T09:53:36;20.40;99.90
54192;DHT22;40101;53.002;6.488;2022-09-09T09:58:32;19.60;99.90
54192;DHT22;40101;53.002;6.488;2022-09-09T10:01:00;19.60;99.90
54192;DHT22;40101;53.002;6.488;2022-09-09T10:03:31;19.40;99.90
54192;DHT22;40101;53.002;6.488;2022-09-09T10:05:57;19.30;99.90
54192;DHT22;40101;53.002;6.488;2022-09-09T10:08:27;19.20;99.90
54192;DHT22;40101;53.002;6.488;2022-09-09T10:19:33;19.60;99.90
54192;DHT22;40101;53.002;6.488;2022-09-09T10:33:14;21.30;99.90
54192;DHT22;40101;53.002;6.488;2022-09-09T10:36:02;21.50;99.90
54192;DHT22;40101;53.002;6.488;2022-09-09T10:38:46;21.40;99.90
54192;DHT22;40101;53.002;6.488;2022-09-09T10:44:05;20.50;99.90
54192;DHT22;40101;53.002;6.488;2022-09-09T10:55:18;20.60;99.90
54192;DHT22;40101;53.002;6.488;2022-09-09T10:57:48;20.90;99.90
54192;DHT22;40101;53.002;6.488;2022-09-09T11:00:24;21.20;99.90
54192;DHT22;40101;53.002;6.488;2022-09-09T11:02:59;21.20;99.90
54192;DHT22;40101;53.002;6.488;2022-09-09T11:08:12;21.00;99.90
54192;DHT22;40101;53.002;6.488;2022-09-09T11:10:48;21.10;99.90
54192;DHT22;40101;53.002;6.488;2022-09-09T11:13:30;21.10;99.90
54192;DHT22;40101;53.002;6.488;2022-09-09T11:16:50;20.80;99.90
54192;DHT22;40101;53.002;6.488;2022-09-09T11:18:49;20.60;99.90
54192;DHT22;40101;53.002;6.488;2022-09-09T11:21:29;20.70;99.90
54192;DHT22;40101;53.002;6.488;2022-09-09T11:24:06;20.60;99.90
54192;DHT22;40101;53.002;6.488;2022-09-09T11:26:43;20.70;99.90
54192;DHT22;40101;53.002;6.488;2022-09-09T11:40:39;20.70;99.90
54192;DHT22;40101;53.002;6.488;2022-09-09T11:43:23;20.70;99.90
54192;DHT22;40101;53.002;6.488;2022-09-09T11:45:54;20.40;99.90
54192;DHT22;40101;53.002;6.488;2022-09-09T11:48:43;20.40;99.90
54192;DHT22;40101;53.002;6.488;2022-09-09T11:51:27;20.30;99.90
54192;DHT22;40101;53.002;6.488;2022-09-09T11:54:28;20.30;99.90
54192;DHT22;40101;53.002;6.488;2022-09-09T11:56:56;20.10;99.90
54192;DHT22;40101;53.002;6.488;2022-09-09T12:04:56;19.90;99.90
54192;DHT22;40101;53.002;6.488;2022-09-09T12:07:29;19.90;99.90
54192;DHT22;40101;53.002;6.488;2022-09-09T12:12:34;19.90;99.90
54192;DHT22;40101;53.002;6.488;2022-09-09T12:17:52;20.20;99.90
54192;DHT22;40101;53.002;6.488;2022-09-09T12:20:22;20.40;99.90
54192;DHT22;40101;53.002;6.488;2022-09-09T12:28:17;20.60;99.90
54192;DHT22;40101;53.002;6.488;2022-09-09T12:31:06;20.70;99.90
54192;DHT22;40101;53.002;6.488;2022-09-09T12:33:39;20.70;99.90
54192;DHT22;40101;53.002;6.488;2022-09-09T12:36:15;20.90;99.90
54192;DHT22;40101;53.002;6.488;2022-09-09T12:38:43;21.10;99.90
54192;DHT22;40101;53.002;6.488;2022-09-09T12:41:24;21.10;99.90
54192;DHT22;40101;53.002;6.488;2022-09-09T12:43:50;21.10;99.90
54192;DHT22;40101;53.002;6.488;2022-09-09T12:46:36;21.00;99.90
54192;DHT22;40101;53.002;6.488;2022-09-09T12:49:03;20.90;99.90
54192;DHT22;40101;53.002;6.488;2022-09-09T12:51:31;20.80;99.90
54192;DHT22;40101;53.002;6.488;2022-09-09T12:53:59;20.80;99.90
54192;DHT22;40101;53.002;6.488;2022-09-09T12:56:30;20.90;99.90
54192;DHT22;40101;53.002;6.488;2022-09-09T12:58:59;21.20;99.90
54192;DHT22;40101;53.002;6.488;2022-09-09T13:01:32;21.60;99.90
54192;DHT22;40101;53.002;6.488;2022-09-09T13:04:01;21.60;99.90
54192;DHT22;40101;53.002;6.488;2022-09-09T13:06:29;21.50;99.90
54192;DHT22;40101;53.002;6.488;2022-09-09T13:08:57;21.50;99.90
54192;DHT22;40101;53.002;6.488;2022-09-09T13:11:36;21.50;99.90
54192;DHT22;40101;53.002;6.488;2022-09-09T13:14:03;21.30;99.90
54192;DHT22;40101;53.002;6.488;2022-09-09T13:16:31;20.90;99.90
54192;DHT22;40101;53.002;6.488;2022-09-09T13:19:02;20.80;99.90
54192;DHT22;40101;53.002;6.488;2022-09-09T13:21:37;20.50;99.90
54192;DHT22;40101;53.002;6.488;2022-09-09T13:24:05;20.40;99.90
54192;DHT22;40101;53.002;6.488;2022-09-09T13:26:33;20.20;99.90
54192;DHT22;40101;53.002;6.488;2022-09-09T13:29:17;20.20;99.90
54192;DHT22;40101;53.002;6.488;2022-09-09T13:31:46;20.20;99.90
54192;DHT22;40101;53.002;6.488;2022-09-09T13:34:32;20.30;99.90
54192;DHT22;40101;53.002;6.488;2022-09-09T13:37:00;20.50;99.90
54192;DHT22;40101;53.002;6.488;2022-09-09T13:39:28;20.60;99.90
54192;DHT22;40101;53.002;6.488;2022-09-09T13:41:54;20.70;99.90
54192;DHT22;40101;53.002;6.488;2022-09-09T13:44:34;20.70;99.90
54192;DHT22;40101;53.002;6.488;2022-09-09T13:47:21;20.70;99.90
54192;DHT22;40101;53.002;6.488;2022-09-09T13:49:48;21.00;99.90
54192;DHT22;40101;53.002;6.488;2022-09-09T13:52:16;21.10;99.90
54192;DHT22;40101;53.002;6.488;2022-09-09T13:54:43;21.40;99.90
54192;DHT22;40101;53.002;6.488;2022-09-09T13:57:17;21.30;99.90
54192;DHT22;40101;53.002;6.488;2022-09-09T13:59:44;21.40;99.90
54192;DHT22;40101;53.002;6.488;2022-09-09T14:02:10;21.00;99.90
54192;DHT22;40101;53.002;6.488;2022-09-09T14:04:36;20.70;99.90
54192;DHT22;40101;53.002;6.488;2022-09-09T14:07:02;20.40;99.90
54192;DHT22;40101;53.002;6.488;2022-09-09T14:09:28;19.90;99.90
54192;DHT22;40101;53.002;6.488;2022-09-09T14:11:54;19.40;99.90
54192;DHT22;40101;53.002;6.488;2022-09-09T14:14:23;19.20;99.90
54192;DHT22;40101;53.002;6.488;2022-09-09T14:16:48;18.80;99.90
54192;DHT22;40101;53.002;6.488;2022-09-09T14:19:14;18.80;99.90
54192;DHT22;40101;53.002;6.488;2022-09-09T14:21:40;18.70;99.90
54192;DHT22;40101;53.002;6.488;2022-09-09T14:24:06;18.90;99.90
54192;DHT22;40101;53.002;6.488;2022-09-09T14:26:32;18.90;99.90
54192;DHT22;40101;53.002;6.488;2022-09-09T14:28:57;18.90;99.90
54192;DHT22;40101;53.002;6.488;2022-09-09T14:31:26;19.10;99.90
54192;DHT22;40101;53.002;6.488;2022-09-09T14:33:52;19.10;99.90
54192;DHT22;40101;53.002;6.488;2022-09-09T14:36:18;19.30;99.90
54192;DHT22;40101;53.002;6.488;2022-09-09T14:38:44;19.40;99.90
54192;DHT22;40101;53.002;6.488;2022-09-09T14:41:17;19.50;99.90
54192;DHT22;40101;53.002;6.488;2022-09-09T14:43:44;19.80;99.90
54192;DHT22;40101;53.002;6.488;2022-09-09T14:46:13;20.00;99.90
54192;DHT22;40101;53.002;6.488;2022-09-09T14:48:39;20.10;99.90
54192;DHT22;40101;53.002;6.488;2022-09-09T14:53:44;20.40;99.90
54192;DHT22;40101;53.002;6.488;2022-09-09T14:56:17;20.50;99.90
54192;DHT22;40101;53.002;6.488;2022-09-09T14:58:44;20.50;99.90
54192;DHT22;40101;53.002;6.488;2022-09-09T15:01:15;20.40;99.90
54192;DHT22;40101;53.002;6.488;2022-09-09T15:03:44;20.30;99.90
54192;DHT22;40101;53.002;6.488;2022-09-09T15:06:14;20.30;99.90
54192;DHT22;40101;53.002;6.488;2022-09-09T15:08:44;20.30;99.90
54192;DHT22;40101;53.002;6.488;2022-09-09T15:11:23;20.40;99.90
54192;DHT22;40101;53.002;6.488;2022-09-09T15:13:53;20.30;99.90
54192;DHT22;40101;53.002;6.488;2022-09-09T15:16:28;20.10;99.90
54192;DHT22;40101;53.002;6.488;2022-09-09T15:18:56;20.00;99.90
54192;DHT22;40101;53.002;6.488;2022-09-09T15:21:24;19.90;99.90
54192;DHT22;40101;53.002;6.488;2022-09-09T15:24:01;19.80;99.90
54192;DHT22;40101;53.002;6.488;2022-09-09T15:26:27;19.80;99.90
54192;DHT22;40101;53.002;6.488;2022-09-09T15:28:53;19.60;99.90
54192;DHT22;40101;53.002;6.488;2022-09-09T15:31:26;19.50;99.90
54192;DHT22;40101;53.002;6.488;2022-09-09T15:33:58;19.50;99.90
54192;DHT22;40101;53.002;6.488;2022-09-09T15:36:39;19.10;99.90
54192;DHT22;40101;53.002;6.488;2022-09-09T15:39:16;19.30;99.90
54192;DHT22;40101;53.002;6.488;2022-09-09T15:41:47;19.10;99.90
54192;DHT22;40101;53.002;6.488;2022-09-09T15:44:19;19.10;99.90
54192;DHT22;40101;53.002;6.488;2022-09-09T15:46:49;19.20;99.90
54192;DHT22;40101;53.002;6.488;2022-09-09T15:49:18;19.30;99.90
54192;DHT22;40101;53.002;6.488;2022-09-09T15:51:45;19.30;99.90
54192;DHT22;40101;53.002;6.488;2022-09-09T15:54:14;19.30;99.90
54192;DHT22;40101;53.002;6.488;2022-09-09T15:56:42;19.10;99.90
54192;DHT22;40101;53.002;6.488;2022-09-09T15:59:08;19.20;99.90
54192;DHT22;40101;53.002;6.488;2022-09-09T16:01:34;18.80;99.90
54192;DHT22;40101;53.002;6.488;2022-09-09T16:04:01;19.10;99.90
54192;DHT22;40101;53.002;6.488;2022-09-09T16:06:28;18.90;99.90
54192;DHT22;40101;53.002;6.488;2022-09-09T16:08:55;18.90;99.90
54192;DHT22;40101;53.002;6.488;2022-09-09T16:11:33;18.80;99.90
54192;DHT22;40101;53.002;6.488;2022-09-09T16:14:00;18.70;99.90
54192;DHT22;40101;53.002;6.488;2022-09-09T16:16:29;18.90;99.90
54192;DHT22;40101;53.002;6.488;2022-09-09T16:18:57;18.70;99.90
54192;DHT22;40101;53.002;6.488;2022-09-09T16:21:34;18.60;99.90
54192;DHT22;40101;53.002;6.488;2022-09-09T16:24:02;18.50;99.90
54192;DHT22;40101;53.002;6.488;2022-09-09T16:26:29;18.40;99.90
54192;DHT22;40101;53.002;6.488;2022-09-09T16:28:55;18.30;99.90
54192;DHT22;40101;53.002;6.488;2022-09-09T16:31:24;18.30;99.90
54192;DHT22;40101;53.002;6.488;2022-09-09T16:33:50;18.30;99.90
54192;DHT22;40101;53.002;6.488;2022-09-09T16:36:19;18.20;99.90
54192;DHT22;40101;53.002;6.488;2022-09-09T16:38:45;18.30;99.90
54192;DHT22;40101;53.002;6.488;2022-09-09T16:41:12;18.20;99.90
54192;DHT22;40101;53.002;6.488;2022-09-09T16:43:38;18.10;99.90
54192;DHT22;40101;53.002;6.488;2022-09-09T16:46:32;18.20;99.90
54192;DHT22;40101;53.002;6.488;2022-09-09T16:49:00;18.30;99.90
54192;DHT22;40101;53.002;6.488;2022-09-09T16:51:32;18.40;99.90
54192;DHT22;40101;53.002;6.488;2022-09-09T16:54:00;18.20;99.90
54192;DHT22;40101;53.002;6.488;2022-09-09T16:56:30;18.20;99.90
54192;DHT22;40101;53.002;6.488;2022-09-09T16:59:03;18.20;99.90
54192;DHT22;40101;53.002;6.488;2022-09-09T17:01:32;18.20;99.90
54192;DHT22;40101;53.002;6.488;2022-09-09T17:04:00;18.30;99.90
54192;DHT22;40101;53.002;6.488;2022-09-09T17:06:27;18.20;99.90
54192;DHT22;40101;53.002;6.488;2022-09-09T17:08:57;18.30;99.90
54192;DHT22;40101;53.002;6.488;2022-09-09T17:11:24;18.30;99.90
54192;DHT22;40101;53.002;6.488;2022-09-09T17:13:50;18.30;99.90
54192;DHT22;40101;53.002;6.488;2022-09-09T17:16:19;18.40;99.90
54192;DHT22;40101;53.002;6.488;2022-09-09T17:18:49;18.50;99.90
54192;DHT22;40101;53.002;6.488;2022-09-09T17:21:19;18.30;99.90
54192;DHT22;40101;53.002;6.488;2022-09-09T17:23:46;18.20;99.90
54192;DHT22;40101;53.002;6.488;2022-09-09T17:26:15;18.20;99.90
54192;DHT22;40101;53.002;6.488;2022-09-09T17:28:41;18.20;99.90
54192;DHT22;40101;53.002;6.488;2022-09-09T17:31:10;18.10;99.90
54192;DHT22;40101;53.002;6.488;2022-09-09T17:33:38;18.20;99.90
54192;DHT22;40101;53.002;6.488;2022-09-09T17:36:10;18.30;99.90
54192;DHT22;40101;53.002;6.488;2022-09-09T17:38:38;18.00;99.90
54192;DHT22;40101;53.002;6.488;2022-09-09T17:41:08;17.90;99.90
54192;DHT22;40101;53.002;6.488;2022-09-09T17:43:34;17.90;99.90
54192;DHT22;40101;53.002;6.488;2022-09-09T17:46:10;17.90;99.90
54192;DHT22;40101;53.002;6.488;2022-09-09T17:48:36;17.90;99.90
54192;DHT22;40101;53.002;6.488;2022-09-09T17:51:07;18.00;99.90
54192;DHT22;40101;53.002;6.488;2022-09-09T17:53:54;17.90;99.90
54192;DHT22;40101;53.002;6.488;2022-09-09T17:56:22;17.90;99.90
54192;DHT22;40101;53.002;6.488;2022-09-09T17:58:49;17.90;99.90
54192;DHT22;40101;53.002;6.488;2022-09-09T18:01:18;17.80;99.90
54192;DHT22;40101;53.002;6.488;2022-09-09T18:03:45;17.90;99.90